createdAt,value
2022-09-22T00:01:39.000Z,90
2022-09-22T00:03:05.000Z,90
2022-09-22T00:05:11.000Z,90
2022-09-22T00:06:38.000Z,89
2022-09-22T00:08:44.000Z,91
2022-09-22T00:10:10.000Z,90
2022-09-22T00:12:17.000Z,90
2022-09-22T00:13:43.000Z,91
2022-09-22T00:15:49.000Z,91
2022-09-22T00:17:16.000Z,91
2022-09-22T00:19:22.000Z,91
2022-09-22T00:20:48.000Z,91
2022-09-22T00:22:55.000Z,90
2022-09-22T00:25:46.000Z,90
2022-09-22T00:27:12.000Z,91
2022-09-22T00:29:18.000Z,91
2022-09-22T00:30:45.000Z,91
2022-09-22T00:32:51.000Z,91
2022-09-22T00:34:17.000Z,91
2022-09-22T00:36:24.000Z,91
2022-09-22T00:37:50.000Z,91
2022-09-22T00:39:56.000Z,91
2022-09-22T00:41:23.000Z,91
2022-09-22T00:43:29.000Z,91
2022-09-22T00:44:55.000Z,91
2022-09-22T00:47:01.000Z,91
2022-09-22T00:48:28.000Z,91
2022-09-22T00:50:34.000Z,92
2022-09-22T00:52:01.000Z,92
2022-09-22T00:54:07.000Z,92
2022-09-22T00:55:33.000Z,92
2022-09-22T00:57:40.000Z,91
2022-09-22T00:59:06.000Z,92
2022-09-22T01:01:12.000Z,92
2022-09-22T01:04:03.000Z,91
2022-09-22T01:05:30.000Z,92
2022-09-22T01:07:36.000Z,92
2022-09-22T01:09:02.000Z,92
2022-09-22T01:11:08.000Z,92
2022-09-22T01:12:35.000Z,91
2022-09-22T01:14:41.000Z,91
2022-09-22T01:16:08.000Z,91
2022-09-22T01:18:14.000Z,91
2022-09-22T01:19:40.000Z,90
2022-09-22T01:21:46.000Z,90
2022-09-22T01:23:13.000Z,91
2022-09-22T01:25:19.000Z,90
2022-09-22T01:26:46.000Z,90
2022-09-22T01:28:52.000Z,90
2022-09-22T01:30:18.000Z,90
2022-09-22T01:32:24.000Z,91
2022-09-22T01:33:51.000Z,91
2022-09-22T01:35:57.000Z,91
2022-09-22T01:37:23.000Z,91
2022-09-22T01:39:29.000Z,90
2022-09-22T01:42:21.000Z,90
2022-09-22T01:43:47.000Z,90
2022-09-22T01:45:53.000Z,90
2022-09-22T01:47:20.000Z,90
2022-09-22T01:49:26.000Z,91
2022-09-22T01:50:52.000Z,91
2022-09-22T01:52:58.000Z,91
2022-09-22T01:54:25.000Z,91
2022-09-22T01:56:31.000Z,91
2022-09-22T01:57:58.000Z,91
2022-09-22T02:00:04.000Z,90
2022-09-22T02:01:30.000Z,90
2022-09-22T02:03:36.000Z,90
2022-09-22T02:05:03.000Z,90
2022-09-22T02:07:09.000Z,90
2022-09-22T02:08:35.000Z,90
2022-09-22T02:10:42.000Z,90
2022-09-22T02:12:08.000Z,90
2022-09-22T02:14:14.000Z,90
2022-09-22T02:15:41.000Z,91
2022-09-22T02:17:47.000Z,91
2022-09-22T02:20:38.000Z,91
2022-09-22T02:22:05.000Z,91
2022-09-22T02:24:11.000Z,91
2022-09-22T02:25:37.000Z,91
2022-09-22T02:27:43.000Z,91
2022-09-22T02:29:10.000Z,91
2022-09-22T02:31:16.000Z,91
2022-09-22T02:32:47.000Z,90
2022-09-22T02:34:53.000Z,91
2022-09-22T02:36:19.000Z,91
2022-09-22T02:38:25.000Z,91
2022-09-22T02:39:52.000Z,91
2022-09-22T02:41:58.000Z,91
2022-09-22T02:43:24.000Z,91
2022-09-22T02:45:30.000Z,92
2022-09-22T02:46:57.000Z,91
2022-09-22T02:49:03.000Z,92
2022-09-22T02:50:30.000Z,92
2022-09-22T02:52:36.000Z,91
2022-09-22T02:54:02.000Z,92
2022-09-22T02:56:08.000Z,92
2022-09-22T02:59:00.000Z,92
2022-09-22T03:00:26.000Z,92
2022-09-22T03:02:32.000Z,92
2022-09-22T03:03:59.000Z,92
2022-09-22T03:06:05.000Z,92
2022-09-22T03:07:31.000Z,92
2022-09-22T03:09:37.000Z,92
2022-09-22T03:11:04.000Z,92
2022-09-22T03:13:10.000Z,91
2022-09-22T03:14:44.000Z,92
2022-09-22T03:16:50.000Z,92
2022-09-22T03:18:16.000Z,92
2022-09-22T03:20:22.000Z,92
2022-09-22T03:21:49.000Z,91
2022-09-22T03:23:55.000Z,92
2022-09-22T03:25:21.000Z,92
2022-09-22T03:27:27.000Z,92
2022-09-22T03:28:54.000Z,92
2022-09-22T03:31:00.000Z,92
2022-09-22T03:32:27.000Z,92
2022-09-22T03:34:33.000Z,92
2022-09-22T03:37:24.000Z,92
2022-09-22T03:38:51.000Z,92
2022-09-22T03:40:57.000Z,93
2022-09-22T03:42:23.000Z,93
2022-09-22T03:44:29.000Z,93
2022-09-22T03:45:56.000Z,92
2022-09-22T03:48:02.000Z,93
2022-09-22T03:49:29.000Z,92
2022-09-22T03:51:35.000Z,93
2022-09-22T03:53:01.000Z,93
2022-09-22T03:55:08.000Z,93
2022-09-22T03:56:34.000Z,94
2022-09-22T03:58:40.000Z,94
2022-09-22T04:00:07.000Z,95
2022-09-22T04:02:13.000Z,94
2022-09-22T04:03:40.000Z,94
2022-09-22T04:05:46.000Z,93
2022-09-22T04:07:13.000Z,93
2022-09-22T04:09:19.000Z,93
2022-09-22T04:10:45.000Z,93
2022-09-22T04:12:51.000Z,94
2022-09-22T04:15:42.000Z,93
2022-09-22T04:17:09.000Z,93
2022-09-22T04:19:15.000Z,93
2022-09-22T04:20:42.000Z,93
2022-09-22T04:22:48.000Z,93
2022-09-22T04:24:14.000Z,93
2022-09-22T04:26:20.000Z,93
2022-09-22T04:27:47.000Z,93
2022-09-22T04:29:53.000Z,92
2022-09-22T04:31:19.000Z,92
2022-09-22T04:33:25.000Z,92
2022-09-22T04:34:52.000Z,92
2022-09-22T04:36:58.000Z,92
2022-09-22T04:38:25.000Z,92
2022-09-22T04:40:31.000Z,92
2022-09-22T04:41:57.000Z,92
2022-09-22T04:44:03.000Z,93
2022-09-22T04:45:30.000Z,94
2022-09-22T04:47:36.000Z,94
2022-09-22T04:49:03.000Z,93
2022-09-22T04:51:09.000Z,94
2022-09-22T04:54:00.000Z,95
2022-09-22T04:55:26.000Z,95
2022-09-22T04:57:33.000Z,95
2022-09-22T04:58:59.000Z,95
2022-09-22T05:01:05.000Z,95
2022-09-22T05:02:32.000Z,95
2022-09-22T05:04:38.000Z,95
2022-09-22T05:06:04.000Z,96
2022-09-22T05:08:11.000Z,96
2022-09-22T05:09:37.000Z,95
2022-09-22T05:11:43.000Z,95
2022-09-22T05:13:10.000Z,94
2022-09-22T05:15:16.000Z,94
2022-09-22T05:16:42.000Z,94
2022-09-22T05:18:48.000Z,94
2022-09-22T05:20:15.000Z,94
2022-09-22T05:22:21.000Z,94
2022-09-22T05:23:48.000Z,94
2022-09-22T05:25:54.000Z,94
2022-09-22T05:27:20.000Z,94
2022-09-22T05:29:26.000Z,94
2022-09-22T05:32:19.000Z,94
2022-09-22T05:33:45.000Z,94
2022-09-22T05:35:52.000Z,94
2022-09-22T05:37:18.000Z,95
2022-09-22T05:39:24.000Z,95
2022-09-22T05:40:51.000Z,94
2022-09-22T05:42:57.000Z,95
2022-09-22T05:44:23.000Z,95
2022-09-22T05:46:29.000Z,95
2022-09-22T05:47:56.000Z,95
2022-09-22T05:50:02.000Z,94
2022-09-22T05:51:28.000Z,94
2022-09-22T05:53:35.000Z,94
2022-09-22T05:55:01.000Z,94
2022-09-22T05:57:07.000Z,94
2022-09-22T05:58:34.000Z,94
2022-09-22T06:00:40.000Z,94
2022-09-22T06:02:07.000Z,95
2022-09-22T06:04:31.000Z,95
2022-09-22T06:05:57.000Z,94
2022-09-22T06:08:04.000Z,95
2022-09-22T06:10:55.000Z,94
2022-09-22T06:12:21.000Z,95
2022-09-22T06:14:27.000Z,94
2022-09-22T06:15:54.000Z,94
2022-09-22T06:18:00.000Z,94
2022-09-22T06:19:26.000Z,94
2022-09-22T06:21:32.000Z,94
2022-09-22T06:22:59.000Z,94
2022-09-22T06:25:05.000Z,94
2022-09-22T06:26:32.000Z,94
2022-09-22T06:28:38.000Z,94
2022-09-22T06:30:04.000Z,94
2022-09-22T06:32:10.000Z,94
2022-09-22T06:33:37.000Z,93
2022-09-22T06:35:43.000Z,93
2022-09-22T06:37:09.000Z,94
2022-09-22T06:39:16.000Z,94
2022-09-22T06:40:42.000Z,94
2022-09-22T06:42:48.000Z,94
2022-09-22T06:44:15.000Z,93
2022-09-22T06:46:21.000Z,92
2022-09-22T06:49:12.000Z,93
2022-09-22T06:50:39.000Z,93
2022-09-22T06:52:45.000Z,93
2022-09-22T06:54:11.000Z,93
2022-09-22T06:56:17.000Z,92
2022-09-22T06:57:44.000Z,93
2022-09-22T06:59:50.000Z,92
2022-09-22T07:01:17.000Z,92
2022-09-22T07:03:23.000Z,92
2022-09-22T07:04:49.000Z,92
2022-09-22T07:06:56.000Z,92
2022-09-22T07:08:22.000Z,93
2022-09-22T07:10:28.000Z,92
2022-09-22T07:11:55.000Z,93
2022-09-22T07:14:01.000Z,93
2022-09-22T07:15:27.000Z,92
2022-09-22T07:17:33.000Z,92
2022-09-22T07:19:00.000Z,92
2022-09-22T07:21:06.000Z,93
2022-09-22T07:22:32.000Z,93
2022-09-22T07:24:39.000Z,93
2022-09-22T07:27:30.000Z,91
2022-09-22T07:28:56.000Z,91
2022-09-22T07:31:02.000Z,92
2022-09-22T07:32:29.000Z,93
2022-09-22T07:34:35.000Z,93
2022-09-22T07:36:02.000Z,93
2022-09-22T07:38:08.000Z,93
2022-09-22T07:39:34.000Z,93
2022-09-22T07:41:40.000Z,93
2022-09-22T07:43:07.000Z,93
2022-09-22T07:45:13.000Z,94
2022-09-22T07:46:40.000Z,93
2022-09-22T07:48:46.000Z,93
2022-09-22T07:50:12.000Z,92
2022-09-22T07:52:19.000Z,92
2022-09-22T07:53:45.000Z,92
2022-09-22T07:55:51.000Z,91
2022-09-22T07:57:18.000Z,91
2022-09-22T07:59:24.000Z,91
2022-09-22T08:00:50.000Z,92
2022-09-22T08:02:57.000Z,92
2022-09-22T08:05:48.000Z,91
2022-09-22T08:07:14.000Z,92
2022-09-22T08:09:20.000Z,92
2022-09-22T08:10:47.000Z,91
2022-09-22T08:12:53.000Z,92
2022-09-22T08:14:20.000Z,91
2022-09-22T08:16:26.000Z,90
2022-09-22T08:17:52.000Z,90
2022-09-22T08:19:58.000Z,91
2022-09-22T08:21:25.000Z,91
2022-09-22T08:23:31.000Z,91
2022-09-22T08:24:57.000Z,90
2022-09-22T08:27:04.000Z,90
2022-09-22T08:28:30.000Z,90
2022-09-22T08:30:36.000Z,90
2022-09-22T08:32:03.000Z,91
2022-09-22T08:34:09.000Z,91
2022-09-22T08:35:35.000Z,91
2022-09-22T08:37:41.000Z,91
2022-09-22T08:39:08.000Z,92
2022-09-22T08:41:14.000Z,91
2022-09-22T08:44:05.000Z,91
2022-09-22T08:45:32.000Z,91
2022-09-22T08:47:38.000Z,91
2022-09-22T08:49:04.000Z,92
2022-09-22T08:51:10.000Z,91
2022-09-22T08:52:37.000Z,92
2022-09-22T08:54:43.000Z,93
2022-09-22T08:56:09.000Z,93
2022-09-22T08:58:16.000Z,91
2022-09-22T08:59:42.000Z,91
2022-09-22T09:01:48.000Z,91
2022-09-22T09:03:15.000Z,91
2022-09-22T09:05:21.000Z,91
2022-09-22T09:06:48.000Z,91
2022-09-22T09:08:54.000Z,91
2022-09-22T09:10:20.000Z,91
2022-09-22T09:12:26.000Z,90
2022-09-22T09:13:53.000Z,91
2022-09-22T09:15:59.000Z,91
2022-09-22T09:17:26.000Z,91
2022-09-22T09:19:32.000Z,92
2022-09-22T09:22:23.000Z,91
2022-09-22T09:26:25.000Z,90
2022-09-22T09:27:52.000Z,91
2022-09-22T09:29:58.000Z,92
2022-09-22T09:31:24.000Z,91
2022-09-22T09:33:31.000Z,90
2022-09-22T09:34:57.000Z,90
2022-09-22T09:37:03.000Z,89
2022-09-22T09:38:30.000Z,89
2022-09-22T09:40:36.000Z,88
2022-09-22T09:42:03.000Z,87
2022-09-22T09:44:09.000Z,87
2022-09-22T09:45:35.000Z,86
2022-09-22T09:47:41.000Z,86
2022-09-22T09:49:08.000Z,87
2022-09-22T09:51:14.000Z,86
2022-09-22T09:52:40.000Z,86
2022-09-22T09:54:46.000Z,86
2022-09-22T09:56:13.000Z,86
2022-09-22T09:58:19.000Z,85
2022-09-22T10:01:10.000Z,85
2022-09-22T10:02:37.000Z,84
2022-09-22T10:04:43.000Z,83
2022-09-22T10:06:10.000Z,84
2022-09-22T10:08:16.000Z,83
2022-09-22T10:09:42.000Z,82
2022-09-22T10:11:48.000Z,82
2022-09-22T10:13:15.000Z,81
2022-09-22T10:15:24.000Z,81
2022-09-22T10:16:50.000Z,82
2022-09-22T10:18:56.000Z,81
2022-09-22T10:20:23.000Z,81
2022-09-22T10:22:29.000Z,79
2022-09-22T10:23:56.000Z,80
2022-09-22T10:26:02.000Z,79
2022-09-22T10:27:28.000Z,81
2022-09-22T10:29:34.000Z,80
2022-09-22T10:31:01.000Z,78
2022-09-22T10:33:07.000Z,78
2022-09-22T10:34:34.000Z,76
2022-09-22T10:36:40.000Z,72
2022-09-22T10:39:31.000Z,72
2022-09-22T10:40:58.000Z,71
2022-09-22T10:43:04.000Z,67
2022-09-22T10:44:30.000Z,67
2022-09-22T10:46:48.000Z,69
2022-09-22T10:48:15.000Z,66
2022-09-22T10:50:21.000Z,67
2022-09-22T10:51:48.000Z,67
2022-09-22T10:53:54.000Z,67
2022-09-22T10:55:20.000Z,65
2022-09-22T10:57:26.000Z,65
2022-09-22T10:58:53.000Z,64
2022-09-22T11:00:59.000Z,68
2022-09-22T11:02:25.000Z,66
2022-09-22T11:04:31.000Z,64
2022-09-22T11:05:58.000Z,64
2022-09-22T11:08:04.000Z,64
2022-09-22T11:09:31.000Z,66
2022-09-22T11:11:37.000Z,65
2022-09-22T11:13:06.000Z,64
2022-09-22T11:15:12.000Z,63
2022-09-22T11:18:03.000Z,63
2022-09-22T11:19:30.000Z,62
2022-09-22T11:21:36.000Z,63
2022-09-22T11:23:02.000Z,62
2022-09-22T11:25:08.000Z,61
2022-09-22T11:26:35.000Z,61
2022-09-22T11:28:41.000Z,62
2022-09-22T11:30:08.000Z,62
2022-09-22T11:32:17.000Z,63
2022-09-22T11:33:43.000Z,59
2022-09-22T11:35:50.000Z,61
2022-09-22T11:37:16.000Z,63
2022-09-22T11:39:22.000Z,61
2022-09-22T11:40:49.000Z,61
2022-09-22T11:42:55.000Z,62
2022-09-22T11:44:24.000Z,61
2022-09-22T11:46:30.000Z,62
2022-09-22T11:47:57.000Z,60
2022-09-22T11:50:03.000Z,60
2022-09-22T11:51:30.000Z,59
2022-09-22T11:53:36.000Z,59
2022-09-22T11:56:27.000Z,60
2022-09-22T11:57:53.000Z,58
2022-09-22T12:00:00.000Z,58
2022-09-22T12:01:26.000Z,58
2022-09-22T12:03:32.000Z,58
2022-09-22T12:04:59.000Z,60
2022-09-22T12:07:05.000Z,60
2022-09-22T12:08:32.000Z,60
2022-09-22T12:10:38.000Z,59
2022-09-22T12:12:04.000Z,59
2022-09-22T12:14:11.000Z,60
2022-09-22T12:15:37.000Z,59
2022-09-22T12:17:43.000Z,57
2022-09-22T12:19:10.000Z,59
2022-09-22T12:21:16.000Z,60
2022-09-22T12:22:42.000Z,61
2022-09-22T12:24:49.000Z,60
2022-09-22T12:26:15.000Z,62
2022-09-22T12:28:21.000Z,61
2022-09-22T12:29:48.000Z,58
2022-09-22T12:31:54.000Z,59
2022-09-22T12:34:45.000Z,60
2022-09-22T12:36:11.000Z,60
2022-09-22T12:38:18.000Z,59
2022-09-22T12:39:44.000Z,60
2022-09-22T12:41:50.000Z,59
2022-09-22T12:43:17.000Z,58
2022-09-22T12:45:23.000Z,58
2022-09-22T12:46:49.000Z,57
2022-09-22T12:48:55.000Z,57
2022-09-22T12:50:22.000Z,55
2022-09-22T12:52:28.000Z,56
2022-09-22T12:53:54.000Z,57
2022-09-22T12:56:01.000Z,55
2022-09-22T12:57:27.000Z,55
2022-09-22T12:59:33.000Z,55
2022-09-22T13:01:00.000Z,55
2022-09-22T13:03:06.000Z,55
2022-09-22T13:04:32.000Z,54
2022-09-22T13:06:39.000Z,56
2022-09-22T13:08:05.000Z,55
2022-09-22T13:10:11.000Z,55
2022-09-22T13:13:02.000Z,54
2022-09-22T13:14:29.000Z,55
2022-09-22T13:16:35.000Z,55
2022-09-22T13:18:02.000Z,53
2022-09-22T13:20:08.000Z,53
2022-09-22T13:21:34.000Z,53
2022-09-22T13:23:40.000Z,55
2022-09-22T13:25:07.000Z,52
2022-09-22T13:27:13.000Z,54
2022-09-22T13:28:39.000Z,53
2022-09-22T13:30:46.000Z,50
2022-09-22T13:32:12.000Z,53
2022-09-22T13:34:24.000Z,52
2022-09-22T13:35:50.000Z,52
2022-09-22T13:37:56.000Z,52
2022-09-22T13:39:23.000Z,50
2022-09-22T13:41:29.000Z,50
2022-09-22T13:42:55.000Z,50
2022-09-22T13:45:02.000Z,50
2022-09-22T13:46:28.000Z,53
2022-09-22T13:48:34.000Z,50
2022-09-22T13:51:25.000Z,48
2022-09-22T13:52:52.000Z,47
2022-09-22T13:54:58.000Z,48
2022-09-22T13:56:24.000Z,47
2022-09-22T13:58:31.000Z,49
2022-09-22T13:59:57.000Z,49
2022-09-22T14:02:03.000Z,49
2022-09-22T14:03:30.000Z,51
2022-09-22T14:05:36.000Z,50
2022-09-22T14:07:03.000Z,50
2022-09-22T14:09:09.000Z,50
2022-09-22T14:10:35.000Z,50
2022-09-22T14:12:41.000Z,48
2022-09-22T14:14:08.000Z,49
2022-09-22T14:16:14.000Z,48
2022-09-22T14:17:40.000Z,48
2022-09-22T14:19:46.000Z,49
2022-09-22T14:21:13.000Z,48
2022-09-22T14:23:19.000Z,50
2022-09-22T14:24:46.000Z,50
2022-09-22T14:26:52.000Z,49
2022-09-22T14:29:43.000Z,48
2022-09-22T14:31:10.000Z,48
2022-09-22T14:33:16.000Z,50
2022-09-22T14:34:42.000Z,48
2022-09-22T14:36:48.000Z,48
2022-09-22T14:38:15.000Z,50
2022-09-22T14:40:25.000Z,46
2022-09-22T14:41:51.000Z,48
2022-09-22T14:43:57.000Z,47
2022-09-22T14:45:24.000Z,46
2022-09-22T14:47:30.000Z,47
2022-09-22T14:48:56.000Z,45
2022-09-22T14:51:03.000Z,47
2022-09-22T14:52:29.000Z,46
2022-09-22T14:54:35.000Z,47
2022-09-22T14:56:02.000Z,46
2022-09-22T14:58:08.000Z,47
2022-09-22T14:59:34.000Z,46
2022-09-22T15:01:40.000Z,45
2022-09-22T15:03:07.000Z,48
2022-09-22T15:05:13.000Z,47
2022-09-22T15:08:04.000Z,47
2022-09-22T15:09:31.000Z,47
2022-09-22T15:11:37.000Z,46
2022-09-22T15:13:03.000Z,48
2022-09-22T15:15:09.000Z,47
2022-09-22T15:16:36.000Z,45
2022-09-22T15:18:42.000Z,44
2022-09-22T15:20:09.000Z,44
2022-09-22T15:22:15.000Z,45
2022-09-22T15:23:41.000Z,45
2022-09-22T15:25:48.000Z,48
2022-09-22T15:27:14.000Z,49
2022-09-22T15:29:20.000Z,46
2022-09-22T15:30:47.000Z,48
2022-09-22T15:32:53.000Z,47
2022-09-22T15:34:20.000Z,46
2022-09-22T15:36:26.000Z,46
2022-09-22T15:37:52.000Z,46
2022-09-22T15:39:58.000Z,44
2022-09-22T15:41:25.000Z,45
2022-09-22T15:43:31.000Z,47
2022-09-22T15:46:22.000Z,46
2022-09-22T15:47:49.000Z,47
2022-09-22T15:49:55.000Z,43
2022-09-22T15:51:21.000Z,46
2022-09-22T15:53:27.000Z,49
2022-09-22T15:54:54.000Z,47
2022-09-22T15:57:00.000Z,46
2022-09-22T15:58:26.000Z,46
2022-09-22T16:00:32.000Z,47
2022-09-22T16:01:59.000Z,47
2022-09-22T16:04:05.000Z,47
2022-09-22T16:05:32.000Z,47
2022-09-22T16:07:38.000Z,47
2022-09-22T16:09:04.000Z,46
2022-09-22T16:11:11.000Z,48
2022-09-22T16:12:37.000Z,47
2022-09-22T16:14:43.000Z,48
2022-09-22T16:16:10.000Z,51
2022-09-22T16:18:16.000Z,50
2022-09-22T16:19:43.000Z,51
2022-09-22T16:21:49.000Z,49
2022-09-22T16:24:40.000Z,55
2022-09-22T16:26:06.000Z,54
2022-09-22T16:28:12.000Z,57
2022-09-22T16:29:39.000Z,59
2022-09-22T16:31:45.000Z,59
2022-09-22T16:33:12.000Z,61
2022-09-22T16:35:18.000Z,60
2022-09-22T16:36:44.000Z,60
2022-09-22T16:38:51.000Z,62
2022-09-22T16:40:17.000Z,62
2022-09-22T16:42:23.000Z,62
2022-09-22T16:43:50.000Z,63
2022-09-22T16:45:56.000Z,63
2022-09-22T16:47:23.000Z,64
2022-09-22T16:49:29.000Z,64
2022-09-22T16:50:55.000Z,65
2022-09-22T16:53:01.000Z,66
2022-09-22T16:54:28.000Z,67
2022-09-22T16:56:34.000Z,68
2022-09-22T16:58:01.000Z,68
2022-09-22T17:00:07.000Z,69
2022-09-22T17:02:58.000Z,69
2022-09-22T17:04:24.000Z,69
2022-09-22T17:06:30.000Z,70
2022-09-22T17:07:57.000Z,71
2022-09-22T17:10:03.000Z,71
2022-09-22T17:11:30.000Z,71
2022-09-22T17:13:36.000Z,71
2022-09-22T17:15:02.000Z,72
2022-09-22T17:17:08.000Z,73
2022-09-22T17:18:35.000Z,73
2022-09-22T17:20:41.000Z,74
2022-09-22T17:22:08.000Z,74
2022-09-22T17:24:14.000Z,73
2022-09-22T17:25:40.000Z,74
2022-09-22T17:27:46.000Z,74
2022-09-22T17:29:13.000Z,74
2022-09-22T17:31:19.000Z,75
2022-09-22T17:32:45.000Z,75
2022-09-22T17:34:51.000Z,75
2022-09-22T17:36:18.000Z,76
2022-09-22T17:38:24.000Z,76
2022-09-22T17:41:15.000Z,76
2022-09-22T17:42:41.000Z,76
2022-09-22T17:44:48.000Z,76
2022-09-22T17:46:14.000Z,76
2022-09-22T17:48:20.000Z,76
2022-09-22T17:49:47.000Z,77
2022-09-22T17:51:53.000Z,76
2022-09-22T17:53:19.000Z,77
2022-09-22T17:55:25.000Z,76
2022-09-22T17:56:52.000Z,77
2022-09-22T17:58:58.000Z,76
2022-09-22T18:00:25.000Z,76
2022-09-22T18:02:31.000Z,77
2022-09-22T18:03:57.000Z,77
2022-09-22T18:06:03.000Z,77
2022-09-22T18:07:30.000Z,78
2022-09-22T18:09:36.000Z,78
2022-09-22T18:11:02.000Z,78
2022-09-22T18:13:08.000Z,78
2022-09-22T18:14:35.000Z,79
2022-09-22T18:16:41.000Z,79
2022-09-22T18:19:32.000Z,79
2022-09-22T18:20:58.000Z,79
2022-09-22T18:23:05.000Z,79
2022-09-22T18:24:31.000Z,79
2022-09-22T18:26:37.000Z,79
2022-09-22T18:28:04.000Z,79
2022-09-22T18:30:10.000Z,79
2022-09-22T18:31:42.000Z,80
2022-09-22T18:33:48.000Z,79
2022-09-22T18:35:14.000Z,79
2022-09-22T18:37:20.000Z,80
2022-09-22T18:38:47.000Z,80
2022-09-22T18:40:53.000Z,80
2022-09-22T18:42:20.000Z,80
2022-09-22T18:44:26.000Z,80
2022-09-22T18:45:52.000Z,80
2022-09-22T18:47:58.000Z,80
2022-09-22T18:49:25.000Z,80
2022-09-22T18:51:31.000Z,81
2022-09-22T18:52:57.000Z,81
2022-09-22T18:55:03.000Z,81
2022-09-22T18:57:55.000Z,81
2022-09-22T18:59:21.000Z,81
2022-09-22T19:01:27.000Z,81
2022-09-22T19:02:54.000Z,82
2022-09-22T19:05:00.000Z,82
2022-09-22T19:06:27.000Z,83
2022-09-22T19:08:33.000Z,82
2022-09-22T19:10:00.000Z,82
2022-09-22T19:12:06.000Z,82
2022-09-22T19:13:32.000Z,83
2022-09-22T19:15:38.000Z,83
2022-09-22T19:17:05.000Z,83
2022-09-22T19:20:37.000Z,83
2022-09-22T19:22:43.000Z,83
2022-09-22T19:24:10.000Z,83
2022-09-22T19:26:16.000Z,84
2022-09-22T19:27:43.000Z,83
2022-09-22T19:29:49.000Z,84
2022-09-22T19:31:15.000Z,84
2022-09-22T19:33:22.000Z,83
2022-09-22T19:36:13.000Z,84
2022-09-22T19:37:39.000Z,84
2022-09-22T19:39:45.000Z,84
2022-09-22T19:41:12.000Z,84
2022-09-22T19:43:18.000Z,84
2022-09-22T19:44:44.000Z,84
2022-09-22T19:46:51.000Z,85
2022-09-22T19:48:17.000Z,85
2022-09-22T19:50:23.000Z,84
2022-09-22T19:51:50.000Z,85
2022-09-22T19:53:56.000Z,85
2022-09-22T19:55:22.000Z,84
2022-09-22T19:57:28.000Z,85
2022-09-22T19:58:55.000Z,85
2022-09-22T20:01:01.000Z,85
2022-09-22T20:02:27.000Z,85
2022-09-22T20:04:34.000Z,86
2022-09-22T20:06:00.000Z,85
2022-09-22T20:08:06.000Z,85
2022-09-22T20:09:33.000Z,86
2022-09-22T20:11:39.000Z,86
2022-09-22T20:14:30.000Z,86
2022-09-22T20:15:56.000Z,86
2022-09-22T20:18:02.000Z,86
2022-09-22T20:19:29.000Z,86
2022-09-22T20:21:35.000Z,86
2022-09-22T20:23:02.000Z,86
2022-09-22T20:25:08.000Z,86
2022-09-22T20:26:34.000Z,86
2022-09-22T20:28:40.000Z,86
2022-09-22T20:30:07.000Z,85
2022-09-22T20:32:13.000Z,86
2022-09-22T20:33:39.000Z,86
2022-09-22T20:35:46.000Z,86
2022-09-22T20:37:12.000Z,86
2022-09-22T20:39:18.000Z,86
2022-09-22T20:40:45.000Z,87
2022-09-22T20:42:51.000Z,86
2022-09-22T20:44:17.000Z,86
2022-09-22T20:46:24.000Z,87
2022-09-22T20:47:50.000Z,86
2022-09-22T20:49:56.000Z,87
2022-09-22T20:52:48.000Z,86
2022-09-22T20:54:14.000Z,86
2022-09-22T20:56:20.000Z,86
2022-09-22T20:57:47.000Z,86
2022-09-22T20:59:53.000Z,86
2022-09-22T21:03:25.000Z,86
2022-09-22T21:04:57.000Z,86
2022-09-22T21:07:03.000Z,87
2022-09-22T21:08:29.000Z,86
2022-09-22T21:10:36.000Z,86
2022-09-22T21:12:02.000Z,86
2022-09-22T21:14:08.000Z,87
2022-09-22T21:15:35.000Z,87
2022-09-22T21:17:41.000Z,87
2022-09-22T21:19:10.000Z,87
2022-09-22T21:21:16.000Z,88
2022-09-22T21:22:43.000Z,88
2022-09-22T21:24:49.000Z,87
2022-09-22T21:26:15.000Z,88
2022-09-22T21:28:21.000Z,88
2022-09-22T21:31:12.000Z,88
2022-09-22T21:32:39.000Z,88
2022-09-22T21:34:45.000Z,88
2022-09-22T21:36:12.000Z,88
2022-09-22T21:38:18.000Z,87
2022-09-22T21:39:44.000Z,88
2022-09-22T21:41:50.000Z,88
2022-09-22T21:43:17.000Z,88
2022-09-22T21:45:23.000Z,88
2022-09-22T21:46:49.000Z,88
2022-09-22T21:48:55.000Z,88
2022-09-22T21:50:22.000Z,89
2022-09-22T21:52:28.000Z,88
2022-09-22T21:53:55.000Z,88
2022-09-22T21:56:01.000Z,89
2022-09-22T21:57:27.000Z,89
2022-09-22T21:59:33.000Z,89
2022-09-22T22:01:00.000Z,89
2022-09-22T22:03:06.000Z,89
2022-09-22T22:04:33.000Z,89
2022-09-22T22:06:39.000Z,88
2022-09-22T22:09:30.000Z,88
2022-09-22T22:10:56.000Z,89
2022-09-22T22:13:02.000Z,89
2022-09-22T22:14:29.000Z,88
2022-09-22T22:16:35.000Z,89
2022-09-22T22:18:01.000Z,89
2022-09-22T22:20:07.000Z,89
2022-09-22T22:21:34.000Z,89
2022-09-22T22:23:40.000Z,89
2022-09-22T22:25:06.000Z,89
2022-09-22T22:27:13.000Z,89
2022-09-22T22:28:39.000Z,89
2022-09-22T22:30:45.000Z,89
2022-09-22T22:32:12.000Z,88
2022-09-22T22:34:18.000Z,88
2022-09-22T22:35:44.000Z,89
2022-09-22T22:37:50.000Z,89
2022-09-22T22:39:17.000Z,89
2022-09-22T22:41:23.000Z,89
2022-09-22T22:42:50.000Z,89
2022-09-22T22:44:56.000Z,89
2022-09-22T22:47:47.000Z,89
2022-09-22T22:49:13.000Z,89
2022-09-22T22:51:19.000Z,89
2022-09-22T22:52:46.000Z,89
2022-09-22T22:54:52.000Z,89
2022-09-22T22:56:19.000Z,89
2022-09-22T22:58:25.000Z,89
2022-09-22T22:59:51.000Z,89
2022-09-22T23:01:57.000Z,89
2022-09-22T23:03:24.000Z,89
2022-09-22T23:05:30.000Z,89
2022-09-22T23:06:57.000Z,88
2022-09-22T23:09:03.000Z,89
2022-09-22T23:10:29.000Z,89
2022-09-22T23:12:36.000Z,89
2022-09-22T23:14:02.000Z,89
2022-09-22T23:16:08.000Z,88
2022-09-22T23:17:35.000Z,89
2022-09-22T23:19:41.000Z,89
2022-09-22T23:21:07.000Z,89
2022-09-22T23:23:14.000Z,89
2022-09-22T23:26:04.000Z,89
2022-09-22T23:27:31.000Z,89
2022-09-22T23:29:37.000Z,88
2022-09-22T23:31:04.000Z,89
2022-09-22T23:33:10.000Z,88
2022-09-22T23:34:36.000Z,90
2022-09-22T23:36:42.000Z,90
2022-09-22T23:38:09.000Z,89
2022-09-22T23:40:17.000Z,90
2022-09-22T23:41:43.000Z,89
2022-09-22T23:43:49.000Z,90
2022-09-22T23:45:16.000Z,89
2022-09-22T23:47:22.000Z,89
2022-09-22T23:48:49.000Z,90
2022-09-22T23:50:55.000Z,90
2022-09-22T23:52:21.000Z,90
2022-09-22T23:54:27.000Z,90
2022-09-22T23:55:54.000Z,90
2022-09-22T23:58:00.000Z,90
2022-09-22T23:59:27.000Z,90
